N704VY KPOY-KFTK
Flight info
| Callsign | N704VY |
|---|---|
| Flight time | N/A |
| Altitude | 45000 |
| Route | IKFOM Q152 ONL J151 STL J8 BOSIE IMPEL |
| Aircraft | C700/M-SBDGHM1RWXY/LB2 |
Departure
| Time | 2026-04-12 16:17 |
|---|---|
| Airport | Powell Municipal Airport (KPOY) |
Arrival
| Time | N/A |
|---|---|
| Airport | Godman Army Air Field (KFTK) |
| Time | Latitude | Longitude | Altitude | Speed | Heading |
|---|---|---|---|---|---|
| 2026-04-12 16:13 | 44.86574 | -108.78718 | 5051 ft | 0 kts | 151° |
| 2026-04-12 16:15 | 44.86573 | -108.78718 | 5056 ft | 1 kts | 151° |
| 2026-04-12 16:15 | 44.86531 | -108.78725 | 5054 ft | 9 kts | 184° |
| 2026-04-12 16:15 | 44.86462 | -108.78677 | 5047 ft | 15 kts | 146° |
| 2026-04-12 16:15 | 44.86354 | -108.78568 | 5056 ft | 22 kts | 141° |
| 2026-04-12 16:16 | 44.86253 | -108.78495 | 5053 ft | 11 kts | 198° |
| 2026-04-12 16:16 | 44.86226 | -108.78560 | 5058 ft | 4 kts | 325° |
| 2026-04-12 16:16 | 44.86236 | -108.78569 | 5053 ft | 6 kts | 324° |
| 2026-04-12 16:16 | 44.86543 | -108.78873 | 5056 ft | 101 kts | 324° |
| 2026-04-12 16:17 | 44.87326 | -108.79655 | 5223 ft | 164 kts | 317° |
| 2026-04-12 16:17 | 44.88309 | -108.80663 | 6053 ft | 193 kts | 322° |
| 2026-04-12 16:17 | 44.89577 | -108.81679 | 6609 ft | 241 kts | 341° |
| 2026-04-12 16:17 | 44.91356 | -108.81332 | 7373 ft | 269 kts | 31° |
| 2026-04-12 16:18 | 44.92612 | -108.79379 | 8821 ft | 282 kts | 62° |
| 2026-04-12 16:18 | 44.92981 | -108.76607 | 9952 ft | 295 kts | 97° |
| 2026-04-12 16:18 | 44.92388 | -108.73760 | 10984 ft | 314 kts | 112° |
| 2026-04-12 16:18 | 44.91935 | -108.70644 | 12048 ft | 331 kts | 92° |
| 2026-04-12 16:19 | 44.92013 | -108.67367 | 13489 ft | 339 kts | 87° |
| 2026-04-12 16:19 | 44.92093 | -108.63994 | 14685 ft | 347 kts | 91° |
| 2026-04-12 16:19 | 44.91965 | -108.60565 | 15967 ft | 353 kts | 97° |
| 2026-04-12 16:19 | 44.91741 | -108.57057 | 17096 ft | 363 kts | 96° |
| 2026-04-12 16:20 | 44.91509 | -108.53478 | 18241 ft | 369 kts | 102° |
| 2026-04-12 16:20 | 44.90885 | -108.49992 | 19188 ft | 373 kts | 108° |
| 2026-04-12 16:20 | 44.90224 | -108.46424 | 20101 ft | 379 kts | 107° |
| 2026-04-12 16:20 | 44.89550 | -108.42803 | 20981 ft | 384 kts | 108° |
| 2026-04-12 16:21 | 44.88850 | -108.39149 | 21854 ft | 388 kts | 109° |
| 2026-04-12 16:21 | 44.88138 | -108.35447 | 22719 ft | 394 kts | 109° |
| 2026-04-12 16:21 | 44.87424 | -108.31699 | 23534 ft | 398 kts | 109° |
| 2026-04-12 16:21 | 44.86703 | -108.27904 | 24246 ft | 403 kts | 110° |
| 2026-04-12 16:22 | 44.85967 | -108.24066 | 24916 ft | 408 kts | 110° |
| 2026-04-12 16:22 | 44.85219 | -108.20177 | 25591 ft | 413 kts | 110° |
| 2026-04-12 16:22 | 44.84718 | -108.17577 | 26014 ft | 417 kts | 110° |
| 2026-04-12 16:22 | 44.83954 | -108.13602 | 26632 ft | 423 kts | 110° |
| 2026-04-12 16:23 | 44.83177 | -108.09568 | 27257 ft | 429 kts | 110° |
| 2026-04-12 16:23 | 44.82387 | -108.05489 | 27910 ft | 434 kts | 111° |
| 2026-04-12 16:23 | 44.81587 | -108.01359 | 28570 ft | 439 kts | 111° |
| 2026-04-12 16:23 | 44.80777 | -107.97184 | 29219 ft | 445 kts | 111° |
| 2026-04-12 16:24 | 44.79954 | -107.92957 | 29851 ft | 450 kts | 111° |
| 2026-04-12 16:24 | 44.79120 | -107.88680 | 30385 ft | 455 kts | 111° |
| 2026-04-12 16:24 | 44.78278 | -107.84371 | 30935 ft | 458 kts | 111° |
| 2026-04-12 16:24 | 44.77427 | -107.80027 | 31444 ft | 462 kts | 112° |
| 2026-04-12 16:25 | 44.76568 | -107.75653 | 31945 ft | 465 kts | 112° |
| 2026-04-12 16:25 | 44.75704 | -107.71259 | 32523 ft | 467 kts | 112° |
| 2026-04-12 16:25 | 44.74840 | -107.66879 | 32962 ft | 471 kts | 112° |
| 2026-04-12 16:25 | 44.73959 | -107.62428 | 33411 ft | 474 kts | 112° |
| 2026-04-12 16:26 | 44.73071 | -107.57942 | 33836 ft | 477 kts | 112° |
| 2026-04-12 16:26 | 44.72177 | -107.53432 | 34226 ft | 480 kts | 112° |
| 2026-04-12 16:26 | 44.71275 | -107.48898 | 34600 ft | 482 kts | 112° |
| 2026-04-12 16:26 | 44.70367 | -107.44351 | 34956 ft | 484 kts | 112° |
| 2026-04-12 16:27 | 44.69452 | -107.39774 | 35317 ft | 487 kts | 112° |
| 2026-04-12 16:27 | 44.68538 | -107.35206 | 35782 ft | 485 kts | 112° |
| 2026-04-12 16:27 | 44.67626 | -107.30659 | 36234 ft | 483 kts | 112° |
| 2026-04-12 16:27 | 44.66707 | -107.26100 | 36662 ft | 482 kts | 112° |
| 2026-04-12 16:28 | 44.65790 | -107.21562 | 36988 ft | 482 kts | 112° |
| 2026-04-12 16:28 | 44.64872 | -107.17026 | 37301 ft | 483 kts | 112° |
| 2026-04-12 16:28 | 44.63954 | -107.12491 | 37676 ft | 482 kts | 112° |
| 2026-04-12 16:28 | 44.63048 | -107.08027 | 38019 ft | 481 kts | 112° |
| 2026-04-12 16:29 | 44.62131 | -107.03520 | 38343 ft | 480 kts | 112° |
| 2026-04-12 16:29 | 44.61211 | -106.99021 | 38597 ft | 479 kts | 112° |
| 2026-04-12 16:29 | 44.60290 | -106.94523 | 38806 ft | 479 kts | 112° |
| 2026-04-12 16:29 | 44.59371 | -106.90034 | 39016 ft | 479 kts | 112° |
| 2026-04-12 16:30 | 44.58447 | -106.85534 | 39198 ft | 479 kts | 112° |
| 2026-04-12 16:30 | 44.57522 | -106.81046 | 39398 ft | 479 kts | 112° |
| 2026-04-12 16:30 | 44.56596 | -106.76558 | 39604 ft | 478 kts | 111° |
| 2026-04-12 16:30 | 44.55670 | -106.72080 | 39817 ft | 478 kts | 112° |
| 2026-04-12 16:31 | 44.54739 | -106.67589 | 39997 ft | 478 kts | 111° |
| 2026-04-12 16:31 | 44.53810 | -106.63121 | 40197 ft | 477 kts | 111° |
| 2026-04-12 16:31 | 44.52880 | -106.58650 | 40381 ft | 477 kts | 111° |
| 2026-04-12 16:31 | 44.51949 | -106.54186 | 40552 ft | 477 kts | 111° |
| 2026-04-12 16:32 | 44.51016 | -106.49727 | 40710 ft | 477 kts | 111° |
| 2026-04-12 16:32 | 44.50080 | -106.45264 | 40866 ft | 477 kts | 111° |
| 2026-04-12 16:32 | 44.49156 | -106.40861 | 41031 ft | 477 kts | 111° |
| 2026-04-12 16:32 | 44.48218 | -106.36402 | 41177 ft | 477 kts | 111° |
| 2026-04-12 16:33 | 44.47277 | -106.31944 | 41253 ft | 479 kts | 112° |
| 2026-04-12 16:33 | 44.45362 | -106.22899 | 41469 ft | 481 kts | 111° |
| 2026-04-12 16:33 | 44.44423 | -106.18468 | 41599 ft | 482 kts | 111° |
| 2026-04-12 16:34 | 44.43466 | -106.13970 | 41738 ft | 482 kts | 112° |
| 2026-04-12 16:34 | 44.42507 | -106.09478 | 41878 ft | 482 kts | 111° |
| 2026-04-12 16:34 | 44.41548 | -106.04992 | 42016 ft | 482 kts | 111° |
| 2026-04-12 16:34 | 44.40586 | -106.00495 | 42149 ft | 482 kts | 112° |
| 2026-04-12 16:35 | 44.39622 | -105.96005 | 42288 ft | 482 kts | 111° |
| 2026-04-12 16:35 | 44.38656 | -105.91512 | 42464 ft | 482 kts | 111° |
| 2026-04-12 16:35 | 44.37687 | -105.87022 | 42563 ft | 483 kts | 111° |
| 2026-04-12 16:35 | 44.36714 | -105.82513 | 42705 ft | 484 kts | 111° |
| 2026-04-12 16:36 | 44.35741 | -105.78015 | 42861 ft | 484 kts | 111° |
| 2026-04-12 16:36 | 44.34765 | -105.73519 | 43006 ft | 484 kts | 111° |
| 2026-04-12 16:36 | 44.33797 | -105.69071 | 43149 ft | 484 kts | 111° |
| 2026-04-12 16:36 | 44.32819 | -105.64578 | 43296 ft | 484 kts | 111° |
| 2026-04-12 16:37 | 44.31838 | -105.60083 | 43423 ft | 484 kts | 111° |
| 2026-04-12 16:37 | 44.30856 | -105.55594 | 43558 ft | 483 kts | 111° |
| 2026-04-12 16:37 | 44.29875 | -105.51121 | 43809 ft | 480 kts | 111° |
| 2026-04-12 16:38 | 44.27915 | -105.42210 | 44081 ft | 477 kts | 111° |
| 2026-04-12 16:38 | 44.26939 | -105.37786 | 44266 ft | 476 kts | 111° |
| 2026-04-12 16:38 | 44.25963 | -105.33372 | 44376 ft | 476 kts | 111° |
| 2026-04-12 16:38 | 44.24984 | -105.28957 | 44492 ft | 476 kts | 111° |
| 2026-04-12 16:39 | 44.24003 | -105.24546 | 44599 ft | 476 kts | 111° |
| 2026-04-12 16:39 | 44.21922 | -105.15787 | 44727 ft | 476 kts | 112° |
| 2026-04-12 16:40 | 44.19868 | -105.07021 | 44741 ft | 481 kts | 111° |
| 2026-04-12 16:40 | 44.17770 | -104.98145 | 44729 ft | 483 kts | 113° |
| 2026-04-12 16:41 | 44.15657 | -104.89271 | 44736 ft | 481 kts | 112° |
| 2026-04-12 16:41 | 44.13579 | -104.80477 | 44726 ft | 475 kts | 113° |
| 2026-04-12 16:42 | 44.11480 | -104.71755 | 44730 ft | 477 kts | 113° |
| 2026-04-12 16:42 | 44.09379 | -104.62964 | 44757 ft | 481 kts | 113° |
| 2026-04-12 16:43 | 44.05141 | -104.45414 | 44800 ft | 477 kts | 113° |
| 2026-04-12 16:44 | 44.03028 | -104.36715 | 44824 ft | 473 kts | 113° |
| 2026-04-12 16:44 | 44.00913 | -104.28042 | 44834 ft | 475 kts | 114° |
| 2026-04-12 16:45 | 43.98779 | -104.19317 | 44829 ft | 478 kts | 114° |
| 2026-04-12 16:45 | 43.96618 | -104.10522 | 44821 ft | 484 kts | 114° |
| 2026-04-12 16:46 | 43.94433 | -104.01657 | 44739 ft | 486 kts | 114° |
| 2026-04-12 16:46 | 43.92243 | -103.92803 | 44760 ft | 483 kts | 114° |
| 2026-04-12 16:47 | 43.90058 | -103.84014 | 44775 ft | 481 kts | 114° |
| 2026-04-12 16:47 | 43.87875 | -103.75265 | 44808 ft | 486 kts | 114° |
| 2026-04-12 16:48 | 43.85653 | -103.66388 | 44842 ft | 490 kts | 114° |
| 2026-04-12 16:48 | 43.83403 | -103.57433 | 44856 ft | 491 kts | 114° |
| 2026-04-12 16:49 | 43.81163 | -103.48547 | 44809 ft | 487 kts | 113° |
| 2026-04-12 16:49 | 43.78928 | -103.39733 | 44795 ft | 485 kts | 113° |
| 2026-04-12 16:50 | 43.76691 | -103.30930 | 44756 ft | 485 kts | 113° |
| 2026-04-12 16:50 | 43.74440 | -103.22110 | 44724 ft | 486 kts | 113° |
| 2026-04-12 16:51 | 43.72194 | -103.13341 | 44675 ft | 487 kts | 114° |
| 2026-04-12 16:51 | 43.69926 | -103.04520 | 44689 ft | 487 kts | 114° |
| 2026-04-12 16:52 | 43.67651 | -102.95701 | 44675 ft | 487 kts | 114° |
| 2026-04-12 16:52 | 43.65364 | -102.86876 | 44679 ft | 488 kts | 114° |
| 2026-04-12 16:53 | 43.63068 | -102.78041 | 44692 ft | 488 kts | 114° |
| 2026-04-12 16:53 | 43.60763 | -102.69210 | 44682 ft | 490 kts | 114° |
| 2026-04-12 16:54 | 43.58458 | -102.60407 | 44695 ft | 492 kts | 114° |
| 2026-04-12 16:54 | 43.56125 | -102.51533 | 44694 ft | 490 kts | 114° |
| 2026-04-12 16:55 | 43.53799 | -102.42717 | 44691 ft | 487 kts | 114° |
| 2026-04-12 16:55 | 43.51480 | -102.33964 | 44687 ft | 485 kts | 114° |
| 2026-04-12 16:56 | 43.49149 | -102.25197 | 44690 ft | 488 kts | 115° |
| 2026-04-12 16:56 | 43.46821 | -102.16468 | 44699 ft | 490 kts | 115° |
| 2026-04-12 16:57 | 43.44455 | -102.07635 | 44700 ft | 492 kts | 115° |
| 2026-04-12 16:57 | 43.42090 | -101.98828 | 44694 ft | 489 kts | 115° |
| 2026-04-12 16:58 | 43.39732 | -101.90088 | 44697 ft | 485 kts | 115° |
| 2026-04-12 16:58 | 43.37375 | -101.81383 | 44696 ft | 487 kts | 115° |
| 2026-04-12 16:59 | 43.34999 | -101.72635 | 44703 ft | 490 kts | 115° |
| 2026-04-12 16:59 | 43.32621 | -101.63910 | 44699 ft | 492 kts | 115° |
| 2026-04-12 17:00 | 43.30213 | -101.55111 | 44699 ft | 492 kts | 115° |
| 2026-04-12 17:00 | 43.27805 | -101.46337 | 44697 ft | 490 kts | 115° |
| 2026-04-12 17:01 | 43.25400 | -101.37612 | 44700 ft | 487 kts | 115° |
| 2026-04-12 17:01 | 43.22998 | -101.28927 | 44685 ft | 486 kts | 115° |
| 2026-04-12 17:02 | 43.20583 | -101.20228 | 44715 ft | 491 kts | 115° |
| 2026-04-12 17:02 | 43.18139 | -101.11449 | 44733 ft | 494 kts | 115° |
| 2026-04-12 17:03 | 43.15710 | -101.02754 | 44736 ft | 490 kts | 115° |
| 2026-04-12 17:03 | 43.13271 | -100.94062 | 44732 ft | 487 kts | 115° |
| 2026-04-12 17:04 | 43.10826 | -100.85377 | 44724 ft | 488 kts | 116° |
| 2026-04-12 17:04 | 43.08388 | -100.76742 | 44724 ft | 490 kts | 116° |
| 2026-04-12 17:05 | 43.05916 | -100.68022 | 44721 ft | 492 kts | 116° |
| 2026-04-12 17:05 | 43.03432 | -100.59286 | 44724 ft | 493 kts | 116° |
| 2026-04-12 17:06 | 43.00943 | -100.50561 | 44695 ft | 491 kts | 116° |
| 2026-04-12 17:06 | 42.98473 | -100.41939 | 44691 ft | 489 kts | 116° |
| 2026-04-12 17:07 | 42.95987 | -100.33287 | 44684 ft | 489 kts | 116° |
| 2026-04-12 17:07 | 42.93495 | -100.24645 | 44690 ft | 490 kts | 116° |
| 2026-04-12 17:08 | 42.90987 | -100.15978 | 44691 ft | 491 kts | 116° |
| 2026-04-12 17:08 | 42.88465 | -100.07289 | 44703 ft | 493 kts | 116° |
| 2026-04-12 17:09 | 42.85932 | -99.98596 | 44715 ft | 494 kts | 116° |
| 2026-04-12 17:09 | 42.83819 | -99.91361 | 44718 ft | 493 kts | 116° |
| 2026-04-12 17:10 | 42.80870 | -99.81305 | 44705 ft | 489 kts | 116° |
| 2026-04-12 17:10 | 42.78764 | -99.74148 | 44704 ft | 488 kts | 117° |
| 2026-04-12 17:11 | 42.76226 | -99.65552 | 44696 ft | 490 kts | 117° |
| 2026-04-12 17:11 | 42.73677 | -99.56939 | 44679 ft | 491 kts | 117° |
| 2026-04-12 17:12 | 42.71113 | -99.48310 | 44687 ft | 492 kts | 117° |
| 2026-04-12 17:12 | 42.68539 | -99.39673 | 44681 ft | 493 kts | 117° |
| 2026-04-12 17:13 | 42.65948 | -99.31015 | 44683 ft | 495 kts | 117° |
| 2026-04-12 17:13 | 42.63364 | -99.22399 | 44686 ft | 494 kts | 117° |
| 2026-04-12 17:14 | 42.60773 | -99.13797 | 44680 ft | 490 kts | 117° |
| 2026-04-12 17:14 | 42.58195 | -99.05262 | 44699 ft | 488 kts | 117° |
| 2026-04-12 17:15 | 42.55595 | -98.96690 | 44715 ft | 493 kts | 117° |
| 2026-04-12 17:15 | 42.52967 | -98.88042 | 44737 ft | 495 kts | 117° |
| 2026-04-12 17:16 | 42.50341 | -98.79433 | 44748 ft | 492 kts | 117° |
| 2026-04-12 17:16 | 42.47729 | -98.70901 | 44733 ft | 489 kts | 118° |
| 2026-04-12 17:17 | 42.44588 | -98.62871 | 44754 ft | 487 kts | 125° |
| 2026-04-12 17:17 | 42.41228 | -98.54853 | 44752 ft | 491 kts | 125° |
| 2026-04-12 17:18 | 42.37836 | -98.46847 | 44739 ft | 489 kts | 125° |
| 2026-04-12 17:18 | 42.34466 | -98.38893 | 44709 ft | 485 kts | 125° |
| 2026-04-12 17:19 | 42.31109 | -98.30999 | 44691 ft | 485 kts | 126° |
| 2026-04-12 17:19 | 42.27746 | -98.23113 | 44718 ft | 489 kts | 126° |
| 2026-04-12 17:20 | 42.24342 | -98.15141 | 44721 ft | 490 kts | 126° |
| 2026-04-12 17:20 | 42.20933 | -98.07187 | 44719 ft | 488 kts | 126° |
| 2026-04-12 17:21 | 42.17532 | -97.99272 | 44709 ft | 487 kts | 126° |
| 2026-04-12 17:21 | 42.14133 | -97.91382 | 44716 ft | 486 kts | 126° |
| 2026-04-12 17:22 | 42.10726 | -97.83496 | 44711 ft | 487 kts | 126° |
| 2026-04-12 17:22 | 42.07326 | -97.75646 | 44718 ft | 489 kts | 126° |
| 2026-04-12 17:23 | 42.03887 | -97.67727 | 44723 ft | 491 kts | 126° |
| 2026-04-12 17:23 | 42.00440 | -97.59808 | 44723 ft | 489 kts | 126° |
| 2026-04-12 17:24 | 41.97007 | -97.51945 | 44707 ft | 486 kts | 126° |
| 2026-04-12 17:24 | 41.93605 | -97.44174 | 44754 ft | 485 kts | 126° |
| 2026-04-12 17:25 | 41.90169 | -97.36349 | 44756 ft | 488 kts | 126° |
| 2026-04-12 17:25 | 41.86708 | -97.28482 | 44755 ft | 491 kts | 126° |
| 2026-04-12 17:26 | 41.83235 | -97.20606 | 44749 ft | 489 kts | 126° |
| 2026-04-12 17:26 | 41.79769 | -97.12772 | 44747 ft | 486 kts | 126° |
| 2026-04-12 17:27 | 41.76320 | -97.04997 | 44731 ft | 484 kts | 126° |
| 2026-04-12 17:27 | 41.72867 | -96.97235 | 44747 ft | 487 kts | 126° |
| 2026-04-12 17:28 | 41.69399 | -96.89453 | 44756 ft | 491 kts | 126° |
| 2026-04-12 17:28 | 41.65896 | -96.81612 | 44750 ft | 488 kts | 127° |
| 2026-04-12 17:29 | 41.62410 | -96.73836 | 44751 ft | 485 kts | 127° |
| 2026-04-12 17:29 | 41.58940 | -96.66114 | 44751 ft | 486 kts | 127° |
| 2026-04-12 17:30 | 41.55446 | -96.58358 | 44764 ft | 488 kts | 127° |
| 2026-04-12 17:30 | 41.51948 | -96.50611 | 44772 ft | 491 kts | 127° |
| 2026-04-12 17:31 | 41.48426 | -96.42828 | 44800 ft | 488 kts | 127° |
| 2026-04-12 17:31 | 41.44907 | -96.35081 | 44793 ft | 487 kts | 127° |
| 2026-04-12 17:32 | 41.41399 | -96.27370 | 44809 ft | 486 kts | 127° |
| 2026-04-12 17:32 | 41.37886 | -96.19673 | 44820 ft | 486 kts | 127° |
| 2026-04-12 17:33 | 41.34384 | -96.12015 | 44822 ft | 487 kts | 127° |
| 2026-04-12 17:33 | 41.30856 | -96.04323 | 44843 ft | 488 kts | 127° |
| 2026-04-12 17:34 | 41.27296 | -95.96582 | 44845 ft | 492 kts | 127° |
| 2026-04-12 17:34 | 41.23710 | -95.88798 | 44844 ft | 492 kts | 127° |
| 2026-04-12 17:35 | 41.20159 | -95.81114 | 44834 ft | 489 kts | 127° |
| 2026-04-12 17:35 | 41.16679 | -95.73371 | 44835 ft | 491 kts | 122° |
| 2026-04-12 17:36 | 41.14018 | -95.64958 | 44836 ft | 496 kts | 117° |
| 2026-04-12 17:36 | 41.11359 | -95.56456 | 44851 ft | 501 kts | 117° |
| 2026-04-12 17:37 | 41.08694 | -95.47891 | 44863 ft | 503 kts | 117° |
| 2026-04-12 17:37 | 41.06015 | -95.39345 | 44870 ft | 499 kts | 118° |
| 2026-04-12 17:38 | 41.03376 | -95.30941 | 44864 ft | 497 kts | 117° |
| 2026-04-12 17:38 | 41.00699 | -95.22453 | 44860 ft | 501 kts | 118° |